Time;durP1;ratioP1;P1;durP2;ratioP2;P2;SDS_P1;SDS_P2;PMS_P1;PMS_P2;Temp;Humidity;BMP_temperature;BMP_pressure;BME280_temperature;BME280_humidity;BME280_pressure;Samples;Min_cycle;Max_cycle;Signal;HPM_P1;HPM_P2
2020/12/23 00:01:05;;;;;;;47.20;8.00;;;22.70;36.30;;;;;;5065936;28;20581;-59
2020/12/23 00:03:31;;;;;;;50.65;9.40;;;22.70;36.50;;;;;;5067549;28;20098;-58
2020/12/23 00:05:58;;;;;;;33.10;8.18;;;22.60;37.20;;;;;;5066520;28;20073;-59
2020/12/23 00:08:24;;;;;;;46.92;8.73;;;22.50;37.30;;;;;;5066404;28;20075;-57
2020/12/23 00:10:51;;;;;;;51.47;6.90;;;22.30;37.50;;;;;;5064927;28;20074;-58
2020/12/23 00:13:18;;;;;;;31.98;6.50;;;22.20;38.10;;;;;;5065148;28;20118;-57
2020/12/23 00:15:45;;;;;;;43.13;6.45;;;22.10;38.50;;;;;;5070061;28;20075;-58
2020/12/23 00:18:11;;;;;;;38.13;6.30;;;22.10;39.00;;;;;;5071197;28;20110;-58
2020/12/23 00:20:38;;;;;;;50.72;7.32;;;21.90;39.70;;;;;;5069521;28;20531;-57
2020/12/23 00:23:05;;;;;;;46.75;9.15;;;21.80;39.90;;;;;;5037123;28;20075;-59
2020/12/23 00:25:32;;;;;;;44.58;9.82;;;21.70;40.80;;;;;;5070784;28;20067;-56
2020/12/23 00:27:59;;;;;;;40.80;13.15;;;21.60;40.90;;;;;;5070406;28;20141;-58
2020/12/23 00:30:25;;;;;;;48.58;13.18;;;21.50;41.80;;;;;;5070094;28;20068;-55
2020/12/23 00:32:52;;;;;;;64.88;12.57;;;21.30;42.50;;;;;;5068285;28;20212;-56
2020/12/23 00:35:18;;;;;;;54.50;18.48;;;21.20;43.00;;;;;;5071330;28;20071;-58
2020/12/23 00:37:45;;;;;;;63.05;17.02;;;21.10;43.70;;;;;;5070478;28;20071;-57
2020/12/23 00:40:12;;;;;;;54.70;12.60;;;21.00;43.80;;;;;;5069879;28;20107;-57
2020/12/23 00:42:38;;;;;;;40.25;10.75;;;20.90;44.00;;;;;;5070160;28;20432;-56
2020/12/23 00:45:05;;;;;;;49.55;9.30;;;20.70;44.20;;;;;;5071420;28;20067;-55
2020/12/23 00:47:31;;;;;;;49.10;9.82;;;20.50;45.50;;;;;;5070608;28;20536;-55
2020/12/23 00:49:58;;;;;;;47.85;9.75;;;20.40;46.00;;;;;;5069417;28;20452;-58
2020/12/23 00:52:24;;;;;;;54.55;10.18;;;20.30;46.40;;;;;;5069999;28;20091;-58
2020/12/23 00:54:51;;;;;;;68.75;11.45;;;20.20;46.70;;;;;;5071685;28;20464;-55
2020/12/23 00:57:17;;;;;;;61.10;11.25;;;20.10;46.90;;;;;;5070317;28;20071;-57
2020/12/23 00:59:44;;;;;;;51.20;11.50;;;20.00;47.40;;;;;;5052318;28;20072;-57
2020/12/23 01:02:10;;;;;;;74.03;12.45;;;19.90;47.60;;;;;;5060437;28;20068;-59
2020/12/23 01:04:36;;;;;;;;;;;19.80;48.10;;;;;;5070572;28;20078;-58
2020/12/23 01:07:03;;;;;;;76.70;13.57;;;19.70;48.40;;;;;;5069524;28;19966;-59
2020/12/23 01:09:29;;;;;;;74.60;14.68;;;19.60;48.70;;;;;;5071158;28;20102;-59
2020/12/23 01:11:56;;;;;;;;;;;19.50;49.00;;;;;;5069733;28;20081;-60
2020/12/23 01:14:22;;;;;;;91.55;15.63;;;19.40;49.30;;;;;;5069156;28;20648;-57
2020/12/23 01:16:52;;;;;;;63.85;13.40;;;19.20;49.70;;;;;;5068829;28;20098;-56
2020/12/23 01:19:18;;;;;;;61.70;13.73;;;19.10;50.10;;;;;;5071390;28;20072;-57
2020/12/23 01:21:45;;;;;;;;;;;19.00;50.20;;;;;;5053847;28;20067;-58
2020/12/23 01:24:12;;;;;;;75.60;13.80;;;18.90;50.20;;;;;;5069735;28;19956;-58
2020/12/23 01:26:39;;;;;;;74.38;14.15;;;18.80;50.80;;;;;;5071001;28;20082;-59
2020/12/23 01:29:05;;;;;;;;;;;18.70;51.20;;;;;;5071547;28;20107;-55
2020/12/23 01:31:32;;;;;;;73.60;15.10;;;18.60;51.40;;;;;;5070179;28;19955;-58
2020/12/23 01:33:58;;;;;;;;;;;18.50;51.60;;;;;;5069892;28;20096;-57
2020/12/23 01:36:24;;;;;;;72.82;13.32;;;18.40;52.00;;;;;;5070365;28;20401;-60
2020/12/23 01:38:50;;;;;;;;;;;18.30;52.60;;;;;;5069281;28;20158;-57
2020/12/23 01:41:17;;;;;;;64.38;12.85;;;18.30;53.00;;;;;;5069905;28;20037;-60
2020/12/23 01:43:51;;;;;;;;;;;18.20;53.20;;;;;;5070421;28;20072;-60
2020/12/23 01:46:18;;;;;;;75.38;12.80;;;18.00;53.70;;;;;;5066294;28;19994;-58
2020/12/23 01:48:45;;;;;;;89.32;25.85;;;18.00;54.20;;;;;;5068677;28;20529;-55
2020/12/23 01:51:11;;;;;;;;;;;17.90;54.50;;;;;;5069460;28;20077;-57
2020/12/23 01:53:38;;;;;;;105.45;35.17;;;17.90;54.90;;;;;;5069791;28;20026;-59
2020/12/23 01:56:06;;;;;;;71.07;18.75;;;17.80;55.20;;;;;;5053181;28;20076;-60
2020/12/23 01:58:32;;;;;;;71.53;15.27;;;17.80;55.30;;;;;;5068950;28;20121;-59
2020/12/23 02:00:59;;;;;;;;;;;17.70;55.80;;;;;;5070847;28;20079;-60
2020/12/23 02:03:26;;;;;;;82.40;14.80;;;17.60;56.50;;;;;;5072138;28;19955;-59
2020/12/23 02:05:56;;;;;;;74.03;14.57;;;17.60;56.90;;;;;;5070365;28;20076;-60
2020/12/23 02:08:22;;;;;;;82.57;19.48;;;17.50;57.60;;;;;;5069496;28;20880;-59
2020/12/23 02:10:49;;;;;;;;;;;17.40;57.80;;;;;;5069396;28;20179;-59
2020/12/23 02:13:35;;;;;;;108.97;25.10;;;17.40;58.50;;;;;;5067682;28;19976;-58
2020/12/23 02:16:02;;;;;;;105.45;26.05;;;17.30;59.20;;;;;;5069519;28;20088;-56
2020/12/23 02:18:28;;;;;;;103.97;26.63;;;17.30;59.30;;;;;;5067326;28;20082;-60
2020/12/23 02:20:54;;;;;;;;;;;17.30;59.40;;;;;;5069357;28;20091;-60
2020/12/23 02:23:21;;;;;;;154.50;54.83;;;17.20;59.30;;;;;;5051809;28;20050;-59
2020/12/23 02:25:48;;;;;;;223.57;52.13;;;17.10;59.70;;;;;;5069271;28;20579;-59
2020/12/23 02:28:15;;;;;;;465.95;71.50;;;17.00;60.20;;;;;;5052031;28;20108;-54
2020/12/23 02:30:42;;;;;;;165.60;41.83;;;17.00;60.50;;;;;;5067811;28;20423;-58
2020/12/23 02:33:08;;;;;;;108.35;30.45;;;16.90;60.30;;;;;;5069930;28;20115;-56
2020/12/23 02:35:37;;;;;;;;;;;16.90;60.60;;;;;;5068694;28;20067;-57
2020/12/23 02:38:04;;;;;;;84.72;23.45;;;16.90;61.70;;;;;;5068488;28;19983;-58
2020/12/23 02:40:30;;;;;;;;;;;16.90;61.90;;;;;;5071054;28;20084;-58
2020/12/23 02:42:56;;;;;;;91.28;23.48;;;16.80;62.20;;;;;;5068774;28;19962;-58
2020/12/23 02:45:23;;;;;;;;;;;16.80;62.50;;;;;;5052219;28;20545;-60
2020/12/23 02:47:49;;;;;;;78.90;24.13;;;16.70;62.90;;;;;;5069845;28;20026;-59
2020/12/23 02:50:15;;;;;;;;;;;16.70;62.80;;;;;;5070189;28;20091;-57
2020/12/23 02:52:42;;;;;;;82.70;24.83;;;16.70;63.20;;;;;;5051091;28;19976;-59
2020/12/23 02:55:08;;;;;;;;;;;16.60;63.60;;;;;;5069573;28;20114;-60
2020/12/23 02:57:35;;;;;;;87.05;23.95;;;16.60;63.90;;;;;;5070240;28;19956;-60
2020/12/23 03:00:03;;;;;;;96.28;26.10;;;16.50;63.90;;;;;;5050829;28;20083;-59
2020/12/23 03:02:29;;;;;;;102.45;26.77;;;16.50;64.50;;;;;;5071210;28;20080;-59
2020/12/23 03:04:55;;;;;;;;;;;16.40;64.70;;;;;;5049702;28;20078;-60
2020/12/23 03:07:22;;;;;;;117.97;43.92;;;16.40;64.60;;;;;;5069174;28;19962;-58
2020/12/23 03:09:48;;;;;;;321.73;63.58;;;16.30;64.90;;;;;;5068692;28;20103;-57
2020/12/23 03:12:14;;;;;;;;;;;16.30;65.40;;;;;;5051587;28;20528;-60
2020/12/23 03:14:41;;;;;;;168.55;40.38;;;16.20;65.50;;;;;;5067919;28;19954;-58
2020/12/23 03:17:07;;;;;;;104.28;26.95;;;16.20;66.20;;;;;;5069713;28;20068;-59
2020/12/23 03:19:34;;;;;;;;;;;16.20;66.10;;;;;;5068580;28;20087;-61
2020/12/23 03:22:01;;;;;;;90.55;25.58;;;16.20;66.40;;;;;;5051385;28;19955;-60
2020/12/23 03:24:27;;;;;;;89.55;27.27;;;16.10;66.50;;;;;;5052085;28;20218;-57
2020/12/23 03:26:54;;;;;;;;;;;16.10;66.80;;;;;;5068841;28;20285;-59
2020/12/23 03:29:20;;;;;;;99.22;28.20;;;16.00;66.80;;;;;;5060245;28;19996;-57
2020/12/23 03:31:47;;;;;;;85.15;25.40;;;16.00;66.50;;;;;;5039780;28;20072;-59
2020/12/23 03:34:13;;;;;;;;;;;16.00;66.60;;;;;;5055620;28;20108;-56
2020/12/23 03:36:39;;;;;;;100.05;24.85;;;15.90;67.20;;;;;;5063437;28;20434;-58
2020/12/23 03:39:07;;;;;;;101.05;25.92;;;15.90;67.20;;;;;;5043388;28;20076;-58
2020/12/23 03:41:34;;;;;;;86.75;23.15;;;15.90;67.20;;;;;;5053036;28;20492;-59
2020/12/23 03:44:02;;;;;;;100.10;25.25;;;15.90;67.60;;;;;;5056196;28;20444;-60
2020/12/23 03:46:29;;;;;;;101.78;27.90;;;15.80;67.60;;;;;;5060166;28;20068;-58
2020/12/23 03:48:55;;;;;;;;;;;15.80;67.90;;;;;;5030406;28;20212;-59
2020/12/23 03:51:21;;;;;;;91.97;25.65;;;15.80;68.60;;;;;;5060936;28;20009;-59
2020/12/23 03:53:48;;;;;;;114.35;27.73;;;15.70;68.80;;;;;;5028604;28;20099;-58
2020/12/23 03:56:14;;;;;;;;;;;15.70;69.00;;;;;;5058676;28;20073;-60
2020/12/23 03:58:41;;;;;;;92.18;24.85;;;15.60;69.20;;;;;;5060380;28;20334;-57
2020/12/23 04:01:07;;;;;;;;;;;15.60;69.40;;;;;;5059794;28;20079;-59
2020/12/23 04:03:33;;;;;;;86.60;26.75;;;15.50;69.10;;;;;;5057746;28;19967;-58
2020/12/23 04:06:00;;;;;;;;;;;15.40;69.70;;;;;;5058334;28;20086;-58
2020/12/23 04:08:26;;;;;;;90.47;23.50;;;15.40;70.30;;;;;;5055409;28;19963;-56
2020/12/23 04:10:52;;;;;;;;;;;15.30;70.30;;;;;;5057603;28;20072;-59
2020/12/23 04:13:19;;;;;;;107.30;25.02;;;15.30;70.60;;;;;;5053833;28;20007;-55
2020/12/23 04:15:46;;;;;;;87.55;26.17;;;15.30;71.70;;;;;;5054643;28;20428;-59
2020/12/23 04:18:12;;;;;;;;;;;15.30;71.90;;;;;;5041645;28;20072;-58
2020/12/23 04:20:41;;;;;;;95.90;27.60;;;15.20;72.20;;;;;;5041068;28;20401;-59
2020/12/23 04:23:12;;;;;;;91.55;26.08;;;15.20;72.20;;;;;;5059281;28;20509;-56
2020/12/23 04:25:39;;;;;;;120.47;27.88;;;15.20;72.00;;;;;;5033865;28;20069;-57
2020/12/23 04:28:05;;;;;;;96.65;27.60;;;15.20;72.70;;;;;;5060352;28;20115;-57
2020/12/23 04:30:31;;;;;;;;;;;15.10;71.00;;;;;;5053738;28;20076;-58
2020/12/23 04:32:58;;;;;;;102.07;28.30;;;15.00;71.80;;;;;;5074594;28;20028;-57
2020/12/23 04:35:24;;;;;;;;;;;15.00;72.50;;;;;;5076089;28;20116;-57
2020/12/23 04:37:51;;;;;;;99.60;27.63;;;14.90;72.80;;;;;;5039450;28;20376;-59
2020/12/23 04:40:17;;;;;;;;;;;14.90;72.40;;;;;;5052530;28;20072;-59
2020/12/23 04:42:44;;;;;;;100.75;28.88;;;14.90;72.90;;;;;;5086670;28;19966;-60
2020/12/23 04:45:10;;;;;;;96.70;28.23;;;14.80;72.50;;;;;;5059153;28;20599;-60
2020/12/23 04:47:37;;;;;;;;;;;14.80;72.60;;;;;;5050040;28;20114;-56
2020/12/23 04:50:05;;;;;;;100.63;28.33;;;14.80;72.80;;;;;;5070355;28;19967;-60
2020/12/23 04:52:33;;;;;;;97.00;29.23;;;14.80;73.00;;;;;;5069648;28;20104;-56
2020/12/23 04:55:03;;;;;;;114.57;29.90;;;14.70;72.50;;;;;;5068673;28;20165;-60
2020/12/23 04:57:29;;;;;;;79.30;25.60;;;14.70;72.70;;;;;;5071285;28;20078;-60
2020/12/23 04:59:56;;;;;;;;;;;14.70;72.50;;;;;;5076750;28;20457;-57
2020/12/23 05:02:22;;;;;;;102.15;29.30;;;14.60;72.30;;;;;;5055017;28;20370;-59
2020/12/23 05:04:49;;;;;;;99.30;40.13;;;14.50;72.40;;;;;;5072098;28;20452;-61
2020/12/23 05:07:20;;;;;;;138.73;38.78;;;14.50;73.00;;;;;;5072944;28;20074;-60
2020/12/23 05:09:56;;;;;;;116.47;31.55;;;14.50;73.00;;;;;;5069134;28;20126;-58
2020/12/23 05:12:23;;;;;;;119.03;31.83;;;14.50;73.00;;;;;;5069956;28;20080;-60
2020/12/23 05:14:50;;;;;;;105.15;30.98;;;14.40;73.30;;;;;;5069536;28;20078;-62
2020/12/23 05:17:17;;;;;;;102.82;30.20;;;14.50;73.40;;;;;;5070397;28;20554;-58
2020/12/23 05:19:46;;;;;;;112.72;29.45;;;14.40;73.40;;;;;;5070027;28;20094;-58
2020/12/23 05:22:16;;;;;;;102.05;28.50;;;14.40;73.40;;;;;;5067454;28;20073;-63
2020/12/23 05:24:44;;;;;;;95.97;29.08;;;14.40;73.70;;;;;;5052136;28;20114;-59
2020/12/23 05:27:11;;;;;;;96.10;29.35;;;14.30;74.30;;;;;;5072020;28;20155;-63
2020/12/23 05:29:46;;;;;;;98.10;28.92;;;14.20;75.10;;;;;;5052655;28;20151;-59
2020/12/23 05:32:13;;;;;;;106.50;30.15;;;14.20;75.70;;;;;;5074926;28;20519;-60
2020/12/23 05:34:41;;;;;;;;;;;14.10;75.80;;;;;;5052986;28;20115;-60
2020/12/23 05:37:08;;;;;;;107.95;28.20;;;14.00;75.30;;;;;;5069730;28;20013;-60
2020/12/23 05:39:35;;;;;;;108.97;31.52;;;14.00;75.30;;;;;;5039528;28;20068;-61
2020/12/23 05:42:07;;;;;;;106.03;32.50;;;13.90;75.30;;;;;;5073387;28;20111;-60
2020/12/23 05:44:33;;;;;;;103.85;31.75;;;13.90;75.80;;;;;;5054592;28;20169;-58
2020/12/23 05:47:00;;;;;;;111.57;31.48;;;14.00;76.00;;;;;;5071723;28;20072;-58
2020/12/23 05:49:26;;;;;;;81.47;29.45;;;14.00;75.60;;;;;;5068953;28;20205;-61
2020/12/23 05:51:53;;;;;;;;;;;13.90;75.70;;;;;;5051573;28;20200;-60
2020/12/23 05:54:22;;;;;;;122.97;40.00;;;13.80;75.30;;;;;;5073677;28;20347;-60
2020/12/23 05:56:53;;;;;;;127.15;41.95;;;13.70;76.00;;;;;;5052191;28;20069;-59
2020/12/23 05:59:22;;;;;;;100.63;35.15;;;13.70;76.70;;;;;;5053150;28;20095;-61
2020/12/23 06:01:50;;;;;;;98.07;34.67;;;13.70;76.80;;;;;;5071544;28;20096;-58
2020/12/23 06:04:17;;;;;;;113.00;39.17;;;13.70;77.00;;;;;;5067587;28;20081;-58
2020/12/23 06:06:45;;;;;;;113.57;36.45;;;13.70;76.60;;;;;;5070065;28;20170;-60
2020/12/23 06:09:15;;;;;;;116.00;37.20;;;13.60;76.70;;;;;;5070910;28;20080;-58
2020/12/23 06:11:49;;;;;;;117.22;37.47;;;13.70;77.20;;;;;;5051874;28;20116;-60
2020/12/23 06:14:24;;;;;;;98.20;37.45;;;13.70;77.20;;;;;;5068404;28;20110;-60
2020/12/23 06:16:59;;;;;;;98.88;37.33;;;13.60;77.00;;;;;;5052559;28;20137;-58
2020/12/23 06:19:36;;;;;;;116.38;39.53;;;13.60;77.30;;;;;;5070580;28;20082;-59
2020/12/23 06:22:08;;;;;;;119.78;36.85;;;13.50;77.60;;;;;;5051913;28;20213;-58
2020/12/23 06:24:38;;;;;;;116.82;37.03;;;13.50;78.00;;;;;;5051522;28;20516;-60
2020/12/23 06:27:09;;;;;;;105.03;36.05;;;13.50;77.90;;;;;;5051404;28;20084;-59
2020/12/23 06:29:38;;;;;;;99.05;37.05;;;13.50;78.30;;;;;;5058343;28;20650;-59
2020/12/23 06:32:21;;;;;;;103.53;36.40;;;13.40;77.90;;;;;;5057137;28;20536;-57
2020/12/23 06:35:08;;;;;;;100.65;37.63;;;13.30;78.00;;;;;;5052198;28;20092;-58
2020/12/23 06:37:37;;;;;;;111.93;41.17;;;13.30;78.80;;;;;;5061353;28;20491;-58
2020/12/23 06:40:11;;;;;;;115.25;39.08;;;13.20;78.30;;;;;;5059270;28;20160;-58
2020/12/23 06:42:46;;;;;;;140.07;40.63;;;13.20;78.30;;;;;;5061679;28;20118;-59
2020/12/23 06:45:13;;;;;;;118.75;41.40;;;13.20;78.30;;;;;;5058439;28;20412;-60
2020/12/23 06:47:41;;;;;;;120.43;39.80;;;13.30;78.10;;;;;;5058843;28;20076;-60
2020/12/23 06:50:14;;;;;;;130.05;42.60;;;13.30;78.30;;;;;;5058270;28;20072;-60
2020/12/23 06:52:45;;;;;;;122.13;42.47;;;13.20;78.50;;;;;;5057202;28;20557;-59
2020/12/23 06:55:17;;;;;;;121.30;43.45;;;13.10;78.20;;;;;;5031104;28;20082;-55
2020/12/23 06:57:46;;;;;;;116.60;42.40;;;13.10;78.80;;;;;;5059640;28;20085;-57
2020/12/23 07:00:15;;;;;;;118.15;42.40;;;13.00;79.60;;;;;;5059653;28;20096;-61
2020/12/23 07:02:51;;;;;;;132.82;43.15;;;13.00;80.00;;;;;;5054849;28;20065;-60
2020/12/23 07:05:23;;;;;;;115.72;41.17;;;13.00;80.90;;;;;;5057036;28;20067;-59
2020/12/23 07:07:57;;;;;;;115.95;40.25;;;12.90;80.70;;;;;;5057344;28;20121;-57
2020/12/23 07:10:28;;;;;;;135.65;41.70;;;13.00;80.60;;;;;;5060978;28;20435;-58
2020/12/23 07:12:55;;;;;;;122.47;44.10;;;12.90;80.80;;;;;;5038940;28;20598;-57
2020/12/23 07:15:35;;;;;;;130.65;44.42;;;12.80;81.60;;;;;;5038957;28;20121;-59
2020/12/23 07:18:09;;;;;;;135.50;44.35;;;12.70;82.60;;;;;;5055153;28;20608;-58
2020/12/23 07:20:38;;;;;;;135.52;44.72;;;12.70;83.30;;;;;;5060606;28;20107;-58
2020/12/23 07:23:08;;;;;;;139.10;42.05;;;12.80;83.50;;;;;;5055469;28;20122;-60
2020/12/23 07:25:44;;;;;;;121.00;43.05;;;12.70;83.50;;;;;;5059306;28;20064;-58
2020/12/23 07:28:11;;;;;;;114.18;43.10;;;12.70;83.50;;;;;;5059737;28;20123;-59
2020/12/23 07:30:40;;;;;;;118.55;43.10;;;12.70;83.70;;;;;;5053043;28;20073;-60
2020/12/23 07:33:18;;;;;;;130.05;44.17;;;12.70;83.70;;;;;;5051181;28;20602;-58
2020/12/23 07:35:46;;;;;;;155.50;44.08;;;12.60;83.80;;;;;;5033165;28;20520;-58
2020/12/23 07:38:14;;;;;;;127.45;44.92;;;12.60;85.40;;;;;;5050800;28;20123;-58
2020/12/23 07:40:41;;;;;;;122.18;43.60;;;12.60;84.30;;;;;;5052605;28;20425;-58
2020/12/23 07:43:08;;;;;;;119.50;44.80;;;12.60;84.20;;;;;;5051700;28;20090;-59
2020/12/23 07:45:36;;;;;;;138.52;48.50;;;12.50;84.20;;;;;;5051956;28;20131;-59
2020/12/23 07:48:06;;;;;;;142.60;45.65;;;12.40;84.90;;;;;;5053116;28;20119;-58
2020/12/23 07:50:35;;;;;;;135.15;47.95;;;12.40;85.40;;;;;;5051069;28;20073;-59
2020/12/23 07:53:18;;;;;;;166.20;51.13;;;12.40;84.80;;;;;;5050550;28;20116;-58
2020/12/23 07:55:46;;;;;;;169.88;57.08;;;12.50;83.50;;;;;;5050978;28;20069;-59
2020/12/23 07:58:13;;;;;;;158.70;57.88;;;12.40;82.90;;;;;;5051986;28;20096;-60
2020/12/23 08:00:43;;;;;;;174.38;56.58;;;12.40;82.00;;;;;;5051441;28;20073;-58
2020/12/23 08:03:10;;;;;;;173.70;61.75;;;12.30;80.90;;;;;;5051576;28;20121;-58
2020/12/23 08:05:38;;;;;;;190.65;59.97;;;12.20;80.70;;;;;;5050340;28;20494;-56
2020/12/23 08:08:08;;;;;;;150.27;59.03;;;12.30;80.70;;;;;;5051408;28;20130;-58
2020/12/23 08:10:35;;;;;;;163.85;58.45;;;12.20;79.80;;;;;;5051829;28;20151;-59
2020/12/23 08:13:05;;;;;;;175.90;57.88;;;12.20;80.10;;;;;;5051227;28;20100;-59
2020/12/23 08:15:32;;;;;;;166.48;56.75;;;12.20;79.80;;;;;;5049612;28;20441;-59
2020/12/23 08:18:02;;;;;;;179.20;58.90;;;12.20;79.60;;;;;;5052294;28;20074;-59
2020/12/23 08:20:29;;;;;;;160.02;57.15;;;12.20;80.00;;;;;;5051580;28;20141;-59
2020/12/23 08:22:57;;;;;;;165.88;58.80;;;12.10;80.00;;;;;;5050051;28;20127;-59
2020/12/23 08:25:25;;;;;;;176.15;60.10;;;12.10;79.80;;;;;;5049314;28;20684;-60
2020/12/23 08:27:53;;;;;;;176.63;55.80;;;12.10;79.30;;;;;;5053543;28;20110;-60
2020/12/23 08:30:41;;;;;;;178.25;55.85;;;12.10;78.90;;;;;;5069648;28;20481;-61
2020/12/23 08:33:16;;;;;;;180.23;60.05;;;12.10;78.70;;;;;;5072220;28;20402;-60
2020/12/23 08:35:45;;;;;;;169.25;59.35;;;12.10;78.80;;;;;;5072303;28;20067;-61
2020/12/23 08:38:18;;;;;;;163.48;58.38;;;12.10;79.50;;;;;;5055228;28;20211;-60
2020/12/23 08:40:47;;;;;;;159.82;59.60;;;12.00;79.30;;;;;;5070885;28;20097;-60
2020/12/23 08:43:23;;;;;;;166.57;59.47;;;11.90;79.20;;;;;;5052914;28;20086;-60
2020/12/23 08:45:51;;;;;;;194.30;61.42;;;11.90;79.40;;;;;;5071696;28;20137;-57
2020/12/23 08:48:22;;;;;;;187.25;63.83;;;11.90;79.20;;;;;;5072254;28;20097;-60
2020/12/23 08:51:04;;;;;;;214.52;64.47;;;11.80;78.80;;;;;;5071808;28;20068;-58
2020/12/23 08:53:36;;;;;;;203.93;62.50;;;11.80;78.20;;;;;;5072071;28;20186;-60
2020/12/23 08:56:27;;;;;;;175.40;61.03;;;11.80;78.60;;;;;;5069658;28;20073;-56
2020/12/23 08:59:02;;;;;;;175.93;63.42;;;11.80;78.50;;;;;;5069658;28;20068;-60
2020/12/23 09:01:30;;;;;;;195.30;60.67;;;11.80;78.20;;;;;;5073070;28;20075;-59
2020/12/23 09:04:08;;;;;;;192.45;63.25;;;11.70;78.10;;;;;;5052484;28;20079;-59
2020/12/23 09:06:38;;;;;;;166.10;59.60;;;11.70;78.30;;;;;;5074457;28;20073;-60
2020/12/23 09:09:17;;;;;;;181.63;59.78;;;11.70;78.10;;;;;;5065835;28;20086;-59
2020/12/23 09:11:47;;;;;;;167.57;60.42;;;11.70;78.10;;;;;;5068625;28;20159;-59
2020/12/23 09:14:43;;;;;;;162.98;58.33;;;11.60;78.60;;;;;;5069722;28;20189;-57
2020/12/23 09:17:19;;;;;;;165.48;57.58;;;11.50;78.50;;;;;;5052206;28;20443;-58
2020/12/23 09:20:02;;;;;;;157.02;57.58;;;11.50;78.60;;;;;;5071084;28;20087;-59
2020/12/23 09:22:46;;;;;;;161.50;55.95;;;11.50;78.50;;;;;;5072774;28;20545;-60
2020/12/23 09:25:30;;;;;;;164.02;56.40;;;11.50;78.50;;;;;;5076404;28;20094;-60
2020/12/23 09:28:16;;;;;;;148.38;55.83;;;11.50;78.50;;;;;;5069746;28;20119;-58
2020/12/23 09:30:59;;;;;;;172.30;59.83;;;11.50;78.90;;;;;;5032713;28;20073;-60
2020/12/23 09:33:26;;;;;;;150.10;55.97;;;11.40;78.70;;;;;;5050356;28;20108;-60
2020/12/23 09:36:03;;;;;;;;;;;11.40;79.20;;;;;;5050272;28;20536;-61
2020/12/23 09:38:37;;;;;;;153.63;64.25;;;11.40;78.70;;;;;;5049413;28;19957;-58
2020/12/23 09:41:08;;;;;;;140.25;59.90;;;11.40;78.40;;;;;;5050543;28;20099;-59
2020/12/23 09:43:37;;;;;;;147.23;61.83;;;11.40;78.40;;;;;;5049509;28;20100;-60
2020/12/23 09:46:08;;;;;;;146.82;61.13;;;11.40;78.40;;;;;;5038438;28;20072;-59
2020/12/23 09:48:35;;;;;;;132.57;56.80;;;11.40;77.90;;;;;;5047745;28;21663;-58
2020/12/23 09:51:03;;;;;;;139.68;57.92;;;11.40;78.40;;;;;;5054728;28;20112;-58
2020/12/23 09:53:29;;;;;;;132.25;55.90;;;11.50;78.50;;;;;;5058046;28;20155;-60
2020/12/23 09:55:56;;;;;;;;;;;11.50;78.20;;;;;;5021677;28;20079;-59
2020/12/23 09:58:22;;;;;;;120.68;53.65;;;11.50;79.00;;;;;;5056492;28;19965;-58
2020/12/23 10:00:51;;;;;;;132.30;54.17;;;11.50;77.70;;;;;;5058672;28;20229;-59
2020/12/23 10:03:18;;;;;;;111.60;51.25;;;11.50;78.00;;;;;;5049810;28;20647;-58
2020/12/23 10:05:44;;;;;;;121.55;53.78;;;11.40;78.10;;;;;;5054161;28;20076;-58
2020/12/23 10:08:11;;;;;;;118.00;49.38;;;11.50;77.90;;;;;;5050278;28;20474;-57
2020/12/23 10:10:37;;;;;;;;;;;11.50;77.80;;;;;;5054584;28;20160;-58
2020/12/23 10:13:04;;;;;;;120.72;50.10;;;11.50;77.70;;;;;;5056618;28;20045;-57
2020/12/23 10:15:30;;;;;;;121.28;53.80;;;11.40;77.70;;;;;;5056611;28;20080;-58
2020/12/23 10:17:57;;;;;;;106.25;48.67;;;11.40;77.70;;;;;;5054975;28;20072;-58
2020/12/23 10:20:24;;;;;;;102.07;49.28;;;11.40;76.80;;;;;;5057052;28;20233;-58
2020/12/23 10:22:50;;;;;;;112.88;49.33;;;11.30;77.40;;;;;;5057034;28;20081;-59
2020/12/23 10:25:17;;;;;;;114.35;49.35;;;11.30;77.20;;;;;;5035710;28;20064;-59
2020/12/23 10:27:43;;;;;;;;;;;11.30;77.20;;;;;;5057856;28;20440;-56
2020/12/23 10:30:09;;;;;;;112.50;49.20;;;11.30;77.50;;;;;;5066629;28;19959;-59
2020/12/23 10:32:38;;;;;;;116.90;49.92;;;11.30;77.40;;;;;;5067251;28;21560;-59
2020/12/23 10:35:05;;;;;;;120.60;48.60;;;11.20;77.70;;;;;;5068629;28;20468;-59
2020/12/23 10:37:31;;;;;;;;;;;11.20;77.90;;;;;;5070952;28;20564;-57
2020/12/23 10:39:57;;;;;;;95.57;48.05;;;11.10;78.00;;;;;;5055864;28;19960;-59
2020/12/23 10:42:27;;;;;;;;;;;11.10;77.50;;;;;;5072654;28;20191;-58
2020/12/23 10:44:53;;;;;;;101.80;45.40;;;11.00;77.70;;;;;;5071535;28;19995;-59
2020/12/23 10:47:20;;;;;;;103.32;45.90;;;11.00;78.10;;;;;;5072256;28;20076;-59
2020/12/23 10:49:48;;;;;;;;;;;10.90;78.00;;;;;;5073060;28;20091;-59
2020/12/23 10:52:15;;;;;;;91.15;45.40;;;11.00;77.80;;;;;;5071696;28;19956;-56
2020/12/23 10:54:42;;;;;;;91.03;43.90;;;10.90;77.40;;;;;;5071602;28;20097;-59
2020/12/23 10:57:08;;;;;;;;;;;10.90;77.40;;;;;;5073038;28;20087;-56
2020/12/23 10:59:34;;;;;;;84.03;41.58;;;10.80;77.50;;;;;;5072612;28;19964;-56
2020/12/23 11:02:01;;;;;;;;;;;10.70;77.50;;;;;;5071732;28;20187;-58
2020/12/23 11:04:27;;;;;;;93.13;43.75;;;10.70;78.20;;;;;;5071550;28;19957;-59
2020/12/23 11:06:53;;;;;;;;;;;10.70;78.30;;;;;;5070323;28;20501;-57
2020/12/23 11:09:20;;;;;;;95.93;43.47;;;10.60;77.60;;;;;;5054683;28;20026;-58
2020/12/23 11:11:54;;;;;;;92.78;44.25;;;10.60;78.20;;;;;;5053929;28;20150;-59
2020/12/23 11:14:21;;;;;;;99.13;47.30;;;10.60;78.40;;;;;;5071291;28;20097;-58
2020/12/23 11:16:48;;;;;;;110.00;47.35;;;10.60;78.80;;;;;;5072435;28;20543;-56
2020/12/23 11:19:15;;;;;;;99.47;47.75;;;10.50;79.20;;;;;;5070571;28;20081;-59
2020/12/23 11:21:42;;;;;;;114.93;50.55;;;10.60;79.30;;;;;;5073273;28;20077;-58
2020/12/23 11:24:08;;;;;;;113.25;47.88;;;10.50;79.00;;;;;;5070572;28;20126;-58
2020/12/23 11:26:35;;;;;;;;;;;10.60;78.80;;;;;;5070388;28;20087;-59
2020/12/23 11:29:02;;;;;;;100.10;47.53;;;10.40;79.40;;;;;;5069856;28;19992;-59
2020/12/23 11:31:29;;;;;;;110.95;47.40;;;10.30;79.60;;;;;;5070448;28;20459;-54
2020/12/23 11:33:55;;;;;;;97.80;46.60;;;10.40;79.30;;;;;;5072310;28;20092;-59
2020/12/23 11:36:22;;;;;;;96.78;46.72;;;10.40;79.40;;;;;;5070699;28;20073;-56
2020/12/23 11:38:48;;;;;;;;;;;10.40;79.20;;;;;;5073002;28;20127;-59
2020/12/23 11:41:15;;;;;;;99.13;45.70;;;10.40;79.70;;;;;;5071139;28;19964;-58
2020/12/23 11:43:41;;;;;;;;;;;10.40;79.90;;;;;;5071618;28;20202;-59
2020/12/23 11:46:09;;;;;;;100.05;47.72;;;10.40;79.60;;;;;;5070909;28;20000;-59
2020/12/23 11:48:36;;;;;;;99.55;46.53;;;10.40;79.50;;;;;;5070814;28;20442;-60
2020/12/23 11:51:07;;;;;;;99.72;47.67;;;10.30;79.70;;;;;;5070623;28;20264;-57
2020/12/23 11:53:34;;;;;;;96.63;47.65;;;10.30;80.10;;;;;;5071305;28;20085;-59
2020/12/23 11:56:01;;;;;;;86.85;46.28;;;10.30;79.70;;;;;;5069466;28;21810;-59
2020/12/23 11:58:28;;;;;;;89.65;44.10;;;10.30;79.50;;;;;;5072838;28;20079;-58
2020/12/23 12:00:54;;;;;;;96.43;43.47;;;10.20;79.20;;;;;;5072288;28;20106;-58
2020/12/23 12:03:21;;;;;;;85.32;44.28;;;10.20;79.80;;;;;;5069832;28;20081;-59
2020/12/23 12:05:51;;;;;;;89.70;43.40;;;10.20;79.40;;;;;;5071779;28;20105;-59
2020/12/23 12:08:17;;;;;;;96.40;44.33;;;10.20;79.40;;;;;;5070031;28;20073;-59
2020/12/23 12:10:45;;;;;;;93.85;45.38;;;10.20;79.10;;;;;;5071818;28;20081;-59
2020/12/23 12:13:11;;;;;;;96.95;45.72;;;10.20;79.10;;;;;;5072005;28;20116;-57
2020/12/23 12:15:37;;;;;;;;;;;10.10;78.90;;;;;;5068588;28;20079;-58
2020/12/23 12:18:04;;;;;;;96.88;44.92;;;10.20;78.90;;;;;;5070880;28;19963;-60
2020/12/23 12:20:30;;;;;;;98.22;44.33;;;10.20;78.80;;;;;;5070632;28;20499;-57
2020/12/23 12:22:57;;;;;;;97.15;46.78;;;10.20;78.10;;;;;;5069983;28;20103;-59
2020/12/23 12:25:23;;;;;;;94.28;45.25;;;10.20;78.00;;;;;;5072927;28;20065;-60
2020/12/23 12:27:50;;;;;;;101.32;45.70;;;10.20;78.10;;;;;;5069233;28;20127;-58
2020/12/23 12:30:16;;;;;;;98.35;48.65;;;10.10;78.10;;;;;;5070284;28;20085;-58
2020/12/23 12:32:45;;;;;;;92.32;47.05;;;10.10;78.30;;;;;;5070653;28;20073;-60
2020/12/23 12:35:11;;;;;;;110.13;48.25;;;10.00;78.80;;;;;;5071698;28;20127;-58
2020/12/23 12:37:38;;;;;;;107.03;49.40;;;10.00;79.10;;;;;;5050633;28;20072;-58
2020/12/23 12:40:04;;;;;;;;;;;9.80;79.10;;;;;;5070892;28;20131;-57
2020/12/23 12:42:30;;;;;;;99.60;49.72;;;9.90;79.80;;;;;;5070969;28;20042;-60
2020/12/23 12:44:57;;;;;;;105.97;49.53;;;9.90;79.90;;;;;;5070057;28;20077;-59